Time;durP1;ratioP1;P1;durP2;ratioP2;P2;SDS_P1;SDS_P2;PMS_P1;PMS_P2;Temp;Humidity;BMP_temperature;BMP_pressure;BME280_temperature;BME280_humidity;BME280_pressure;Samples;Min_cycle;Max_cycle;Signal;HPM_P1;HPM_P2
2022/12/25 00:00:21;;;;;;;43.50;12.55;;;;;;;-143.48;99.13;118439.88;5035596;28;20021;-69
2022/12/25 00:02:46;;;;;;;43.08;11.43;;;;;;;-143.48;99.01;118439.88;5053411;28;20088;-70
2022/12/25 00:05:12;;;;;;;42.70;11.63;;;;;;;-143.48;99.38;118439.88;5053444;28;20025;-70
2022/12/25 00:07:37;;;;;;;43.17;10.95;;;;;;;-143.48;99.48;118439.88;5053526;28;20059;-69
2022/12/25 00:10:03;;;;;;;36.85;10.85;;;;;;;-143.48;98.88;118439.88;5053364;28;20047;-69
2022/12/25 00:12:28;;;;;;;40.13;11.23;;;;;;;-143.48;99.12;118439.88;5053472;28;20059;-70
2022/12/25 00:14:53;;;;;;;36.33;11.23;;;;;;;-143.48;99.17;118439.88;5053605;28;20025;-70
2022/12/25 00:17:19;;;;;;;46.30;11.35;;;;;;;-143.48;98.91;118439.88;5053298;28;20103;-70
2022/12/25 00:19:44;;;;;;;38.63;10.77;;;;;;;-143.48;98.92;118439.88;5053407;28;20025;-70
2022/12/25 00:22:09;;;;;;;40.35;10.40;;;;;;;-143.48;98.94;118439.88;5053103;28;20443;-69
2022/12/25 00:24:34;;;;;;;41.80;11.52;;;;;;;-143.48;99.28;118439.88;5053066;28;20090;-69
2022/12/25 00:27:00;;;;;;;34.35;11.18;;;;;;;-143.48;99.27;118439.88;5053107;28;20025;-69
2022/12/25 00:29:25;;;;;;;32.22;11.05;;;;;;;-143.48;99.10;118439.88;5053114;28;20457;-70
2022/12/25 00:31:50;;;;;;;32.20;10.40;;;;;;;-143.48;98.91;118439.88;5053322;28;20104;-70
2022/12/25 00:34:16;;;;;;;40.95;11.63;;;;;;;-143.48;98.75;118439.88;5053256;28;20029;-69
2022/12/25 00:36:41;;;;;;;36.70;11.35;;;;;;;-143.48;98.71;118439.88;5053202;28;20032;-69
2022/12/25 00:39:06;;;;;;;29.67;10.38;;;;;;;-143.48;98.81;118439.88;5053210;28;20025;-70
2022/12/25 00:44:16;;;;;;;37.72;11.00;;;;;;;-143.48;98.96;118439.88;5053002;28;20527;-69
2022/12/25 00:46:41;;;;;;;29.73;9.75;;;;;;;-143.48;98.64;118439.88;5053030;28;20025;-70
2022/12/25 00:49:07;;;;;;;36.03;10.05;;;;;;;-143.48;98.55;118439.88;5035339;28;20033;-70
2022/12/25 00:51:32;;;;;;;34.75;10.60;;;;;;;-143.48;98.68;118439.88;5052990;28;20112;-70
2022/12/25 00:53:58;;;;;;;31.02;10.15;;;;;;;-143.48;98.63;118439.88;5035254;28;20372;-70
2022/12/25 00:56:24;;;;;;;36.60;11.05;;;;;;;-143.48;98.58;118439.88;5052993;28;20368;-70
2022/12/25 00:58:49;;;;;;;33.05;10.90;;;;;;;-143.48;98.71;118439.88;5052860;28;20033;-70
2022/12/25 01:01:14;;;;;;;41.65;10.55;;;;;;;-143.48;98.13;118439.88;5052635;28;20480;-70
2022/12/25 01:03:40;;;;;;;35.60;11.45;;;;;;;-143.48;97.71;118439.88;5035108;28;20029;-70
2022/12/25 01:06:06;;;;;;;32.35;11.18;;;;;;;-143.48;98.01;118439.88;5052775;28;20490;-69
2022/12/25 01:08:37;;;;;;;36.55;10.32;;;;;;;-143.48;98.27;118439.88;5052858;28;20020;-70
2022/12/25 01:11:07;;;;;;;36.38;10.93;;;;;;;-143.48;98.23;118439.88;5035518;28;20021;-69
2022/12/25 01:13:34;;;;;;;33.17;10.15;;;;;;;-143.48;97.99;118439.88;5056543;28;20087;-69
2022/12/25 01:16:07;;;;;;;34.60;10.85;;;;;;;-143.48;98.17;118439.88;5056418;28;20029;-69
2022/12/25 01:18:33;;;;;;;35.40;11.07;;;;;;;-143.48;97.94;118439.88;5056387;28;20415;-69
2022/12/25 01:21:05;;;;;;;35.10;10.95;;;;;;;-143.48;98.21;118439.88;5038525;28;20028;-69
2022/12/25 01:23:30;;;;;;;38.85;11.50;;;;;;;-143.48;98.06;118439.88;5055988;28;20357;-68
2022/12/25 01:26:02;;;;;;;34.70;10.65;;;;;;;-143.48;98.49;118439.88;5056633;28;20045;-70
2022/12/25 01:28:28;;;;;;;33.35;10.80;;;;;;;-143.48;98.22;118439.88;5038516;28;20033;-69
2022/12/25 01:30:53;;;;;;;32.58;10.60;;;;;;;-143.48;98.20;118439.88;5038310;28;20075;-69
2022/12/25 01:33:18;;;;;;;34.63;10.65;;;;;;;-143.48;98.14;118439.88;5056388;28;20083;-69
2022/12/25 01:35:44;;;;;;;37.60;11.23;;;;;;;-143.48;98.18;118439.88;5056175;28;20380;-69
2022/12/25 01:38:09;;;;;;;33.22;10.63;;;;;;;-143.48;98.65;118439.88;5056132;28;20060;-69
2022/12/25 01:40:34;;;;;;;29.67;10.85;;;;;;;-143.48;98.98;118439.88;5038193;28;20027;-69
2022/12/25 01:42:59;;;;;;;31.77;10.98;;;;;;;-143.48;98.32;118439.88;5038198;28;20048;-69
2022/12/25 01:45:43;;;;;;;27.55;10.93;;;;;;;-143.48;98.74;118439.88;5038181;28;20040;-69
2022/12/25 01:48:14;;;;;;;27.20;10.77;;;;;;;-143.48;98.83;118439.88;5055932;28;20539;-70
2022/12/25 01:50:44;;;;;;;32.95;11.18;;;;;;;-143.48;98.59;118439.88;5055771;28;20123;-69
2022/12/25 01:53:10;;;;;;;30.45;10.13;;;;;;;-143.48;98.55;118439.88;5055836;28;20036;-70
2022/12/25 01:55:37;;;;;;;33.78;11.45;;;;;;;-143.48;98.44;118439.88;5055548;28;20484;-70
2022/12/25 01:58:02;;;;;;;34.60;10.95;;;;;;;-143.48;98.75;118439.88;5055613;28;20021;-69
2022/12/25 02:00:28;;;;;;;32.92;11.35;;;;;;;-143.48;98.33;118439.88;5037685;28;20529;-69
2022/12/25 02:02:53;;;;;;;32.35;11.60;;;;;;;-143.48;98.91;118439.88;5055673;28;20403;-70
2022/12/25 02:05:18;;;;;;;27.13;10.65;;;;;;;-143.48;97.95;118439.88;5055495;28;20025;-70
2022/12/25 02:07:45;;;;;;;29.38;11.10;;;;;;;-143.48;97.72;118439.88;5055559;28;20048;-70
2022/12/25 02:10:11;;;;;;;34.55;10.77;;;;;;;-143.48;97.77;118439.88;5037442;28;20029;-70
2022/12/25 02:12:37;;;;;;;35.70;12.00;;;;;;;-143.48;98.45;118439.88;5055419;28;20457;-70
2022/12/25 02:15:08;;;;;;;35.67;10.75;;;;;;;-143.48;98.51;118439.88;5037487;28;20354;-70
2022/12/25 02:17:58;;;;;;;24.75;10.80;;;;;;;-143.48;98.53;118439.88;5055410;28;20021;-71
2022/12/25 02:20:34;;;;;;;32.42;11.27;;;;;;;-143.48;98.91;118439.88;5037367;28;20124;-70
2022/12/25 02:23:37;;;;;;;32.50;11.30;;;;;;;-143.48;99.20;118439.88;5055150;28;20020;-71
2022/12/25 02:26:17;;;;;;;27.80;11.27;;;;;;;-143.48;98.83;118439.88;5055209;28;20045;-70
2022/12/25 02:29:09;;;;;;;30.65;11.52;;;;;;;-143.48;99.03;118439.88;5037244;28;20029;-70
2022/12/25 02:31:41;;;;;;;32.72;11.15;;;;;;;-143.48;99.26;118439.88;5054763;28;20029;-70
2022/12/25 02:34:28;;;;;;;28.17;11.75;;;;;;;-143.48;99.15;118439.88;5053626;28;20083;-70
2022/12/25 02:37:05;;;;;;;35.95;11.63;;;;;;;-143.48;98.43;118439.88;5055017;28;20029;-70
2022/12/25 02:39:58;;;;;;;34.28;11.65;;;;;;;-143.48;99.36;118439.88;5053599;28;20499;-70
2022/12/25 03:08:21;;;;;;;32.50;12.25;;;;;;;-143.48;100.00;118439.88;5054712;28;20120;-71
2022/12/25 03:13:44;;;;;;;27.77;12.38;;;;;;;-143.48;100.00;118439.88;5054581;28;20447;-70
2022/12/25 03:18:55;;;;;;;32.45;12.65;;;;;;;-143.48;99.86;118439.88;5054822;28;20048;-71
2022/12/25 03:26:54;;;;;;;30.88;12.25;;;;;;;-143.48;99.89;118439.88;5054100;28;20072;-70
2022/12/25 03:32:43;;;;;;;39.08;13.13;;;;;;;-143.48;100.00;118439.88;5054095;28;20091;-70
2022/12/25 03:35:45;;;;;;;32.30;12.20;;;;;;;-143.48;100.00;118439.88;5053563;28;20476;-70
2022/12/25 03:45:51;;;;;;;30.17;12.43;;;;;;;-143.48;99.97;118439.88;5053905;28;20503;-70
2022/12/25 03:49:43;;;;;;;33.17;11.80;;;;;;;-143.48;99.66;118439.88;5053420;28;20055;-70
2022/12/25 04:37:36;;;;;;;37.22;15.10;;;;;;;-143.48;99.84;118439.88;5053541;28;20506;-69
2022/12/25 04:40:02;;;;;;;31.55;14.85;;;;;;;-143.48;99.88;118439.88;5035438;28;20021;-69
2022/12/25 04:42:28;;;;;;;34.85;14.38;;;;;;;-143.48;99.59;118439.88;5053313;28;20062;-69
2022/12/25 04:44:53;;;;;;;31.60;12.90;;;;;;;-143.48;99.75;118439.88;5053177;28;20113;-69
2022/12/25 04:47:18;;;;;;;29.00;13.23;;;;;;;-143.48;100.00;118439.88;5055655;28;20021;-69
2022/12/25 04:49:43;;;;;;;32.50;13.13;;;;;;;-143.48;99.90;118439.88;5057024;28;20029;-69
2022/12/25 04:52:09;;;;;;;33.47;13.27;;;;;;;-143.48;99.73;118439.88;5056909;28;20108;-70
2022/12/25 04:54:36;;;;;;;29.92;11.40;;;;;;;-143.48;99.04;118439.88;5056897;28;20102;-70
2022/12/25 04:57:02;;;;;;;27.85;11.25;;;;;;;-143.48;99.41;118439.88;5056814;28;20048;-69
2022/12/25 04:59:27;;;;;;;26.98;11.40;;;;;;;-143.48;99.21;118439.88;5056998;28;20017;-70
2022/12/25 05:01:52;;;;;;;32.35;11.65;;;;;;;-143.48;98.66;118439.88;5038997;28;20021;-69
2022/12/25 05:04:18;;;;;;;31.65;9.77;;;;;;;-143.48;98.73;118439.88;5056646;28;20095;-70
2022/12/25 05:06:43;;;;;;;26.70;9.32;;;;;;;-143.48;99.02;118439.88;5038862;28;20021;-70
2022/12/25 05:09:08;;;;;;;25.23;8.65;;;;;;;-143.48;98.96;118439.88;5056675;28;20029;-70
2022/12/25 05:11:34;;;;;;;24.60;8.95;;;;;;;-143.48;98.51;118439.88;5038602;28;20496;-70
2022/12/25 05:13:59;;;;;;;26.58;8.63;;;;;;;-143.48;98.42;118439.88;5056459;28;20538;-70
2022/12/25 05:16:25;;;;;;;18.92;7.28;;;;;;;-143.48;98.32;118439.88;5038717;28;20499;-69
2022/12/25 05:18:51;;;;;;;22.73;8.20;;;;;;;-143.48;98.45;118439.88;5056618;28;20086;-69
2022/12/25 05:21:16;;;;;;;20.45;8.93;;;;;;;-143.48;98.38;118439.88;5056460;28;20048;-70
2022/12/25 05:23:47;;;;;;;22.10;7.30;;;;;;;-143.48;98.48;118439.88;5056149;28;20021;-70
2022/12/25 05:26:14;;;;;;;22.60;7.93;;;;;;;-143.48;98.24;118439.88;5056358;28;20656;-69
2022/12/25 05:28:39;;;;;;;22.17;7.75;;;;;;;-143.48;98.64;118439.88;5056370;28;20029;-69
2022/12/25 05:31:04;;;;;;;17.55;7.90;;;;;;;-143.48;98.30;118439.88;5056126;28;20096;-70
2022/12/25 05:33:30;;;;;;;23.65;7.72;;;;;;;-143.48;98.32;118439.88;5056171;28;20029;-69
2022/12/25 05:35:55;;;;;;;27.48;8.00;;;;;;;-143.48;98.21;118439.88;5056223;28;20036;-70
2022/12/25 05:38:21;;;;;;;21.52;7.50;;;;;;;-143.48;97.99;118439.88;5055959;28;20020;-70
2022/12/25 05:40:46;;;;;;;19.83;6.72;;;;;;;-143.48;98.13;118439.88;5056147;28;20021;-70
2022/12/25 05:43:11;;;;;;;20.27;7.28;;;;;;;-143.48;98.23;118439.88;5056238;28;20013;-71
2022/12/25 05:45:37;;;;;;;25.33;6.97;;;;;;;-143.48;98.62;118439.88;5038228;28;20096;-70
2022/12/25 05:48:02;;;;;;;20.63;6.93;;;;;;;-143.48;98.76;118439.88;5055893;28;20025;-70
2022/12/25 05:50:28;;;;;;;21.08;7.40;;;;;;;-143.48;98.29;118439.88;5056119;28;20368;-70
2022/12/25 05:52:53;;;;;;;17.02;6.85;;;;;;;-143.48;98.71;118439.88;5055668;28;20108;-71
2022/12/25 05:55:18;;;;;;;19.63;6.30;;;;;;;-143.48;98.57;118439.88;5037981;28;20056;-70
2022/12/25 05:57:43;;;;;;;13.23;6.38;;;;;;;-143.48;98.21;118439.88;5055338;28;20029;-70
2022/12/25 06:00:09;;;;;;;21.65;6.78;;;;;;;-143.48;97.90;118439.88;5055735;28;20072;-70
2022/12/25 06:02:35;;;;;;;14.40;6.55;;;;;;;-143.48;97.88;118439.88;5055395;28;20017;-70
2022/12/25 06:05:01;;;;;;;17.73;6.63;;;;;;;-143.48;97.83;118439.88;5055612;28;20017;-70
2022/12/25 06:07:26;;;;;;;18.50;6.68;;;;;;;-143.48;97.95;118439.88;5055424;28;20075;-69
2022/12/25 06:09:52;;;;;;;16.58;6.57;;;;;;;-143.48;97.74;118439.88;5055480;28;20025;-70
2022/12/25 06:12:17;;;;;;;18.70;6.70;;;;;;;-143.48;97.82;118439.88;5055460;28;20029;-69
2022/12/25 06:14:42;;;;;;;16.95;6.68;;;;;;;-143.48;97.98;118439.88;5055530;28;20407;-70
2022/12/25 06:17:08;;;;;;;20.00;6.18;;;;;;;-143.48;97.55;118439.88;5037895;28;20056;-70
2022/12/25 06:19:33;;;;;;;15.70;6.55;;;;;;;-143.48;97.59;118439.88;5055520;28;20021;-69
2022/12/25 06:21:58;;;;;;;21.38;6.97;;;;;;;-143.48;98.29;118439.88;5037594;28;20100;-70
2022/12/25 06:24:24;;;;;;;16.13;6.78;;;;;;;-143.48;97.81;118439.88;5054889;28;20127;-69
2022/12/25 06:26:49;;;;;;;18.13;6.68;;;;;;;-143.48;98.03;118439.88;5037632;28;20411;-69
2022/12/25 06:29:14;;;;;;;14.68;6.28;;;;;;;-143.48;98.51;118439.88;5055102;28;20021;-70
2022/12/25 06:31:40;;;;;;;14.52;5.95;;;;;;;-143.48;98.51;118439.88;5055136;28;20457;-71
2022/12/25 06:34:06;;;;;;;10.68;5.82;;;;;;;-143.48;98.04;118439.88;5055056;28;20029;-70
2022/12/25 06:36:31;;;;;;;17.35;6.38;;;;;;;-143.48;97.73;118439.88;5055258;28;20105;-70
2022/12/25 06:38:59;;;;;;;18.92;6.10;;;;;;;-143.48;97.56;118439.88;5055136;28;20021;-70
2022/12/25 06:41:27;;;;;;;15.02;5.95;;;;;;;-143.48;97.93;118439.88;5055113;28;20070;-70
2022/12/25 06:43:55;;;;;;;17.17;6.20;;;;;;;-143.48;98.40;118439.88;5036946;28;20159;-70
2022/12/25 06:46:21;;;;;;;14.85;6.28;;;;;;;-143.48;98.88;118439.88;5036928;28;20047;-69
2022/12/25 06:48:48;;;;;;;19.83;6.05;;;;;;;-143.48;98.40;118439.88;5054795;28;20024;-70
2022/12/25 06:51:25;;;;;;;15.40;5.70;;;;;;;-143.48;98.40;118439.88;5036621;28;20028;-70
2022/12/25 06:53:51;;;;;;;15.77;5.80;;;;;;;-143.48;98.36;118439.88;5054516;28;20078;-70
2022/12/25 06:56:20;;;;;;;15.20;6.28;;;;;;;-143.48;98.52;118439.88;5054613;28;20032;-70
2022/12/25 06:58:51;;;;;;;17.20;5.78;;;;;;;-143.48;99.06;118439.88;5054582;28;20376;-70
2022/12/25 07:01:25;;;;;;;17.20;6.10;;;;;;;-143.48;98.33;118439.88;5054379;28;20484;-70
2022/12/25 07:03:55;;;;;;;12.50;5.93;;;;;;;-143.48;98.36;118439.88;5054516;28;20035;-70
2022/12/25 07:06:20;;;;;;;13.82;5.85;;;;;;;-143.48;98.52;118439.88;5054424;28;20044;-70
2022/12/25 07:08:45;;;;;;;13.40;6.25;;;;;;;-143.48;98.32;118439.88;5053490;28;20025;-70
2022/12/25 07:11:11;;;;;;;15.35;6.40;;;;;;;-143.48;98.22;118439.88;5054230;28;20083;-70
2022/12/25 07:13:36;;;;;;;15.73;6.50;;;;;;;-143.48;97.59;118439.88;5054321;28;20025;-70
2022/12/25 07:16:03;;;;;;;13.40;6.28;;;;;;;-143.48;97.88;118439.88;5054375;28;20460;-70
2022/12/25 07:18:30;;;;;;;13.20;6.28;;;;;;;-143.48;97.29;118439.88;5054281;28;20020;-70
2022/12/25 07:20:58;;;;;;;12.27;5.60;;;;;;;-143.48;97.10;118439.88;5054149;28;20472;-70
2022/12/25 07:23:24;;;;;;;12.20;5.97;;;;;;;-143.48;97.40;118439.88;5054111;28;20021;-70
2022/12/25 07:25:57;;;;;;;13.25;6.00;;;;;;;-143.48;97.31;118439.88;5053966;28;20499;-70
2022/12/25 07:28:23;;;;;;;13.63;6.13;;;;;;;-143.48;97.42;118439.88;5053908;28;20036;-70
2022/12/25 07:30:49;;;;;;;12.68;6.40;;;;;;;-143.48;97.05;118439.88;5054083;28;20024;-70
2022/12/25 07:33:15;;;;;;;16.95;6.75;;;;;;;-143.48;96.88;118439.88;5053922;28;20498;-70
2022/12/25 07:35:40;;;;;;;16.50;5.90;;;;;;;-143.48;96.61;118439.88;5035960;28;20433;-70
2022/12/25 07:38:05;;;;;;;16.77;6.40;;;;;;;-143.48;96.58;118439.88;5053661;28;20060;-70
2022/12/25 07:40:31;;;;;;;13.05;6.57;;;;;;;-143.48;96.56;118439.88;5053856;28;20059;-70
2022/12/25 07:42:56;;;;;;;14.38;6.30;;;;;;;-143.48;97.04;118439.88;5036217;28;20108;-70
2022/12/25 07:45:21;;;;;;;16.27;5.80;;;;;;;-143.48;96.57;118439.88;5053773;28;20459;-70
2022/12/25 07:47:46;;;;;;;12.07;6.28;;;;;;;-143.48;97.09;118439.88;5035853;28;20070;-70
2022/12/25 07:50:12;;;;;;;12.77;5.88;;;;;;;-143.48;96.65;118439.88;5053706;28;20368;-69
2022/12/25 07:52:37;;;;;;;14.40;5.93;;;;;;;-143.48;95.88;118439.88;5053451;28;20107;-70
2022/12/25 07:55:02;;;;;;;13.40;5.72;;;;;;;-143.48;96.50;118439.88;5053578;28;20021;-70
2022/12/25 07:57:28;;;;;;;14.52;5.95;;;;;;;-143.48;96.23;118439.88;5053606;28;20116;-70
2022/12/25 07:59:54;;;;;;;11.55;5.50;;;;;;;-143.48;96.32;118439.88;5053569;28;20029;-70
2022/12/25 08:02:25;;;;;;;15.75;5.32;;;;;;;-143.48;96.18;118439.88;5035637;28;20464;-70
2022/12/25 08:04:51;;;;;;;11.05;5.20;;;;;;;-143.48;96.17;118439.88;5035461;28;20025;-70
2022/12/25 08:07:16;;;;;;;13.38;5.40;;;;;;;-143.48;96.57;118439.88;5035300;28;20017;-70
2022/12/25 08:09:41;;;;;;;12.18;5.65;;;;;;;-143.48;96.40;118439.88;5053455;28;20025;-71
2022/12/25 08:12:07;;;;;;;13.50;4.88;;;;;;;-143.48;96.23;118439.88;5053380;28;20060;-70
2022/12/25 08:14:32;;;;;;;17.92;5.50;;;;;;;-143.48;96.63;118439.88;5053491;28;20106;-70
2022/12/25 08:16:57;;;;;;;14.07;5.00;;;;;;;-143.48;97.11;118439.88;5053303;28;20025;-70
2022/12/25 08:19:22;;;;;;;14.10;4.70;;;;;;;-143.48;97.01;118439.88;5053509;28;20032;-70
2022/12/25 08:21:48;;;;;;;16.45;5.30;;;;;;;-143.48;97.08;118439.88;5038969;28;20478;-70
2022/12/25 08:24:14;;;;;;;11.10;5.00;;;;;;;-143.48;97.39;118439.88;5057203;28;20084;-69
2022/12/25 08:26:39;;;;;;;9.80;4.90;;;;;;;-143.48;97.29;118439.88;5057492;28;20021;-69
2022/12/25 08:29:04;;;;;;;10.40;4.75;;;;;;;-143.48;97.10;118439.88;5057355;28;20767;-70
2022/12/25 08:31:32;;;;;;;13.15;5.35;;;;;;;-143.48;97.34;118439.88;5057368;28;20108;-70
2022/12/25 08:33:58;;;;;;;11.25;5.13;;;;;;;-143.48;96.77;118439.88;5057381;28;20526;-70
2022/12/25 08:36:24;;;;;;;11.82;5.25;;;;;;;-143.48;97.03;118439.88;5057040;28;20029;-70
2022/12/25 08:38:49;;;;;;;10.05;5.35;;;;;;;-143.48;96.64;118439.88;5057302;28;20090;-70
2022/12/25 08:41:16;;;;;;;11.70;5.60;;;;;;;-143.48;96.39;118439.88;5056985;28;20025;-71
2022/12/25 08:43:41;;;;;;;14.90;6.03;;;;;;;-143.48;96.44;118439.88;5057270;28;20021;-71
2022/12/25 08:46:07;;;;;;;11.85;6.10;;;;;;;-143.48;96.26;118439.88;5057357;28;20452;-68
2022/12/25 08:48:33;;;;;;;12.32;6.07;;;;;;;-143.48;95.68;118439.88;5056808;28;20021;-71
2022/12/25 08:50:59;;;;;;;15.80;6.10;;;;;;;-143.48;95.72;118439.88;5057115;28;20036;-69
2022/12/25 08:53:24;;;;;;;11.98;5.90;;;;;;;-143.48;95.58;118439.88;5056754;28;20025;-69
2022/12/25 08:56:00;;;;;;;12.18;5.88;;;;;;;-143.48;95.19;118439.88;5056839;28;20094;-71
2022/12/25 08:58:26;;;;;;;11.20;5.82;;;;;;;-143.48;95.36;118439.88;5039069;28;20111;-70
2022/12/25 09:00:52;;;;;;;13.85;6.47;;;;;;;-143.48;95.57;118439.88;5056826;28;20028;-69
2022/12/25 09:03:17;;;;;;;12.73;6.38;;;;;;;-143.48;95.98;118439.88;5056806;28;20021;-69
2022/12/25 09:05:42;;;;;;;12.63;5.88;;;;;;;-143.48;95.65;118439.88;5056913;28;20032;-69
2022/12/25 09:08:08;;;;;;;8.85;5.38;;;;;;;-143.48;95.84;118439.88;5056715;28;20060;-69
2022/12/25 09:10:36;;;;;;;11.60;5.93;;;;;;;-143.48;95.63;118439.88;5039106;28;20452;-70
2022/12/25 09:13:02;;;;;;;12.20;5.55;;;;;;;-143.48;95.63;118439.88;5038546;28;20061;-69
2022/12/25 09:15:27;;;;;;;9.68;5.47;;;;;;;-143.48;96.22;118439.88;5038720;28;20021;-70
2022/12/25 09:17:53;;;;;;;14.25;5.63;;;;;;;-143.48;95.85;118439.88;5056645;28;20021;-70
2022/12/25 09:20:18;;;;;;;11.68;5.60;;;;;;;-143.48;95.85;118439.88;5056537;28;20115;-70
2022/12/25 09:22:43;;;;;;;10.95;5.07;;;;;;;-143.48;95.97;118439.88;5056566;28;20356;-69
2022/12/25 09:25:09;;;;;;;12.90;5.35;;;;;;;-143.48;96.03;118439.88;5056005;28;20055;-70
2022/12/25 09:27:34;;;;;;;11.18;5.90;;;;;;;-143.48;96.42;118439.88;5056361;28;20025;-70
2022/12/25 09:30:00;;;;;;;11.63;5.53;;;;;;;-143.48;96.62;118439.88;5056224;28;20436;-70
2022/12/25 09:32:25;;;;;;;12.48;5.63;;;;;;;-143.48;95.99;118439.88;5055523;28;20028;-70
2022/12/25 09:34:50;;;;;;;15.70;6.13;;;;;;;-143.48;96.07;118439.88;5038254;28;20111;-70
2022/12/25 09:37:16;;;;;;;13.70;5.40;;;;;;;-143.48;95.83;118439.88;5038407;28;20028;-70
2022/12/25 09:39:41;;;;;;;12.80;5.40;;;;;;;-143.48;96.38;118439.88;5056149;28;20025;-70
2022/12/25 09:42:17;;;;;;;13.98;5.45;;;;;;;-143.48;96.41;118439.88;5038185;28;20480;-71
2022/12/25 09:44:48;;;;;;;11.98;5.57;;;;;;;-143.48;96.34;118439.88;5038286;28;20017;-70
2022/12/25 09:47:19;;;;;;;8.65;5.15;;;;;;;-143.48;97.01;118439.88;5056029;28;20032;-70
2022/12/25 09:50:06;;;;;;;10.38;4.90;;;;;;;-143.48;97.20;118439.88;5056018;28;20028;-70
2022/12/25 09:52:56;;;;;;;11.95;4.72;;;;;;;-143.48;97.04;118439.88;5055858;28;20479;-71
2022/12/25 09:55:28;;;;;;;18.98;5.78;;;;;;;-143.48;96.67;118439.88;5055484;28;20025;-70
2022/12/25 09:57:56;;;;;;;15.45;5.10;;;;;;;-143.48;97.15;118439.88;5055655;28;20044;-70
2022/12/25 10:00:26;;;;;;;13.93;5.60;;;;;;;-143.48;96.71;118439.88;5055667;28;20025;-71
2022/12/25 10:03:06;;;;;;;10.23;5.30;;;;;;;-143.48;97.16;118439.88;5055513;28;20111;-71
2022/12/25 10:05:46;;;;;;;11.73;5.00;;;;;;;-143.48;97.72;118439.88;5055946;28;20036;-71
2022/12/25 10:08:39;;;;;;;10.40;5.13;;;;;;;-143.48;97.90;118439.88;5055492;28;20025;-70
2022/12/25 10:11:24;;;;;;;11.40;5.10;;;;;;;-143.48;97.88;118439.88;5055474;28;20453;-70
2022/12/25 10:14:18;;;;;;;13.88;5.13;;;;;;;-143.48;97.81;118439.88;5055131;28;20381;-70
2022/12/25 10:16:46;;;;;;;8.07;4.95;;;;;;;-143.48;97.50;118439.88;5055501;28;20029;-70
2022/12/25 10:19:14;;;;;;;11.90;5.18;;;;;;;-143.48;97.34;118439.88;5055466;28;20029;-71
2022/12/25 10:21:40;;;;;;;10.27;4.57;;;;;;;-143.48;98.22;118439.88;5055510;28;20037;-71
2022/12/25 10:24:27;;;;;;;11.98;4.95;;;;;;;-143.48;98.02;118439.88;5055122;28;20045;-71
2022/12/25 10:26:54;;;;;;;14.00;5.22;;;;;;;-143.48;98.63;118439.88;5055278;28;20028;-70
2022/12/25 10:29:20;;;;;;;10.90;5.13;;;;;;;-143.48;97.74;118439.88;5055281;28;20021;-70
2022/12/25 10:31:48;;;;;;;13.43;5.03;;;;;;;-143.48;97.62;118439.88;5037350;28;20092;-70
2022/12/25 10:34:14;;;;;;;12.13;6.18;;;;;;;-143.48;97.85;118439.88;5055062;28;20023;-70
2022/12/25 10:36:42;;;;;;;10.10;5.05;;;;;;;-143.48;98.20;118439.88;5055164;28;20044;-70
2022/12/25 10:39:16;;;;;;;11.32;5.57;;;;;;;-143.48;97.73;118439.88;5054877;28;20032;-70
2022/12/25 10:42:08;;;;;;;12.88;5.40;;;;;;;-143.48;97.54;118439.88;5055014;28;20040;-71
2022/12/25 10:44:34;;;;;;;14.52;5.30;;;;;;;-143.48;98.19;118439.88;5053813;28;20059;-70
2022/12/25 10:47:01;;;;;;;18.10;5.20;;;;;;;-143.48;98.11;118439.88;5037012;28;20033;-71
2022/12/25 10:49:44;;;;;;;9.38;5.05;;;;;;;-143.48;97.55;118439.88;5054750;28;20036;-70
2022/12/25 10:52:22;;;;;;;10.35;5.30;;;;;;;-143.48;98.32;118439.88;5054450;28;20060;-70
2022/12/25 10:54:48;;;;;;;10.30;5.43;;;;;;;-143.48;98.23;118439.88;5054525;28;20384;-70
2022/12/25 10:57:16;;;;;;;13.77;5.43;;;;;;;-143.48;97.99;118439.88;5054693;28;20017;-71
2022/12/25 10:59:50;;;;;;;13.23;5.40;;;;;;;-143.48;97.85;118439.88;5036806;28;20020;-71
2022/12/25 11:02:18;;;;;;;8.50;5.18;;;;;;;-143.48;97.91;118439.88;5054502;28;20021;-70
2022/12/25 11:04:44;;;;;;;14.13;5.35;;;;;;;-143.48;97.78;118439.88;5054247;28;20033;-71
2022/12/25 11:07:18;;;;;;;12.38;5.63;;;;;;;-143.48;97.50;118439.88;5054725;28;20116;-70
2022/12/25 11:09:55;;;;;;;10.77;5.97;;;;;;;-143.48;97.81;118439.88;5054341;28;20029;-71
2022/12/25 11:12:28;;;;;;;15.90;7.35;;;;;;;-143.48;97.89;118439.88;5036391;28;20025;-71
2022/12/25 11:14:54;;;;;;;;;;;;;;;-143.48;97.50;118439.88;5054619;28;20037;-70
2022/12/25 11:17:24;;;;;;;12.98;5.50;;;;;;;-143.48;98.12;118439.88;5055943;28;19975;-71
2022/12/25 11:19:57;;;;;;;14.57;6.22;;;;;;;-143.48;98.13;118439.88;5054453;28;20031;-71
2022/12/25 11:22:24;;;;;;;14.00;5.53;;;;;;;-143.48;98.13;118439.88;5054058;28;20025;-70
2022/12/25 11:24:49;;;;;;;9.38;5.38;;;;;;;-143.48;98.22;118439.88;5054153;28;20049;-72
2022/12/25 11:27:22;;;;;;;11.90;5.22;;;;;;;-143.48;98.14;118439.88;5054353;28;20079;-71
2022/12/25 11:29:55;;;;;;;13.48;6.05;;;;;;;-143.48;98.44;118439.88;5054549;28;20103;-71
2022/12/25 11:32:28;;;;;;;10.80;5.70;;;;;;;-143.48;98.14;118439.88;5054229;28;20029;-71
2022/12/25 11:34:54;;;;;;;9.43;5.28;;;;;;;-143.48;98.71;118439.88;5054104;28;20373;-71
2022/12/25 11:37:22;;;;;;;13.15;6.20;;;;;;;-143.48;98.20;118439.88;5053885;28;20033;-71
2022/12/25 11:39:48;;;;;;;11.25;6.18;;;;;;;-143.48;98.60;118439.88;5053879;28;20033;-71
2022/12/25 11:42:31;;;;;;;12.20;6.25;;;;;;;-143.48;98.19;118439.88;5054016;28;20017;-71
2022/12/25 11:44:57;;;;;;;13.95;7.07;;;;;;;-143.48;98.45;118439.88;5053803;28;20035;-70
2022/12/25 11:47:55;;;;;;;11.45;6.93;;;;;;;-143.48;98.52;118439.88;5053886;28;20103;-70
2022/12/25 11:50:33;;;;;;;13.57;8.50;;;;;;;-143.48;98.53;118439.88;5053723;28;20123;-70
2022/12/25 11:53:05;;;;;;;19.45;7.82;;;;;;;-143.48;98.20;118439.88;5035898;28;20108;-71
2022/12/25 11:55:30;;;;;;;14.32;7.68;;;;;;;-143.48;98.70;118439.88;5053341;28;20032;-70
2022/12/25 11:58:00;;;;;;;15.85;8.25;;;;;;;-143.48;98.62;118439.88;5053808;28;20465;-70
2022/12/25 12:00:29;;;;;;;15.63;8.23;;;;;;;-143.48;98.94;118439.88;5053437;28;20119;-71
2022/12/25 12:03:14;;;;;;;16.58;7.97;;;;;;;-143.48;98.72;118439.88;5035919;28;20028;-70
2022/12/25 12:05:52;;;;;;;11.50;7.53;;;;;;;-143.48;99.62;118439.88;5053643;28;20028;-70
2022/12/25 12:08:17;;;;;;;14.63;8.40;;;;;;;-143.48;99.79;118439.88;5053492;28;20045;-70
2022/12/25 12:11:15;;;;;;;20.17;9.52;;;;;;;-143.48;99.60;118439.88;5035622;28;20067;-70
2022/12/25 12:13:52;;;;;;;17.38;8.80;;;;;;;-143.48;99.43;118439.88;5053245;28;20071;-70
2022/12/25 12:16:17;;;;;;;16.73;9.23;;;;;;;-143.48;99.24;118439.88;5053414;28;20029;-70
2022/12/25 12:18:44;;;;;;;16.67;8.88;;;;;;;-143.48;99.55;118439.88;5053393;28;20102;-71
2022/12/25 12:21:22;;;;;;;18.33;9.20;;;;;;;-143.48;99.31;118439.88;5053467;28;20035;-70
2022/12/25 12:23:56;;;;;;;16.35;8.68;;;;;;;-143.48;99.14;118439.88;5053372;28;20073;-70
2022/12/25 12:26:26;;;;;;;17.13;9.52;;;;;;;-143.48;99.47;118439.88;5053328;28;20029;-70
2022/12/25 12:28:58;;;;;;;23.90;10.05;;;;;;;-143.48;99.33;118439.88;5053326;28;20372;-70
2022/12/25 12:31:34;;;;;;;15.57;8.80;;;;;;;-143.48;99.14;118439.88;5053341;28;20028;-71
2022/12/25 12:34:01;;;;;;;12.57;7.88;;;;;;;-143.48;99.45;118439.88;5035504;28;20516;-71
2022/12/25 12:36:27;;;;;;;13.70;8.40;;;;;;;-143.48;99.47;118439.88;5053356;28;20059;-71
2022/12/25 12:38:55;;;;;;;13.45;8.27;;;;;;;-143.48;99.19;118439.88;5053305;28;20025;-71
2022/12/25 12:41:23;;;;;;;18.00;8.90;;;;;;;-143.48;99.80;118439.88;5053341;28;20080;-70
2022/12/25 12:43:55;;;;;;;16.13;8.43;;;;;;;-143.48;99.81;118439.88;5053203;28;20029;-70